Time;durP1;ratioP1;P1;durP2;ratioP2;P2;SDS_P1;SDS_P2;PMS_P1;PMS_P2;Temp;Humidity;BMP_temperature;BMP_pressure;BME280_temperature;BME280_humidity;BME280_pressure;Samples;Min_cycle;Max_cycle;Signal;HPM_P1;HPM_P2
2024/01/09 00:01:16;;;;;;;;;;;;;;;;;;5088480;28;19938;-57
2024/01/09 00:03:42;;;;;;;;;;;;;;;;;;5093307;28;19916;-57
2024/01/09 00:06:08;;;;;;;;;;;;;;;;;;5082342;28;19951;-58
2024/01/09 00:08:34;;;;;;;;;;;;;;;;;;5089464;28;20015;-56
2024/01/09 00:11:00;;;;;;;;;;;;;;;;;;5090910;28;19912;-56
2024/01/09 00:13:26;;;;;;;;;;;;;;;;;;5090790;28;19912;-57
2024/01/09 00:15:52;;;;;;;;;;;;;;;;;;5089304;28;20020;-57
2024/01/09 00:18:18;;;;;;;;;;;;;;;;;;5084306;28;20371;-57
2024/01/09 00:20:43;;;;;;;;;;;;;;;;;;5091614;28;19913;-57
2024/01/09 00:23:09;;;;;;;;;;;;;;;;;;5087154;28;20003;-57
2024/01/09 00:25:35;;;;;;;;;;;;;;;;;;5077261;28;19930;-56
2024/01/09 00:28:01;;;;;;;;;;;;;;;;;;5092001;28;19916;-57
2024/01/09 00:30:27;;;;;;;;;;;;;;;;;;5091374;28;20008;-57
2024/01/09 00:32:53;;;;;;;;;;;;;;;;;;5091848;28;19959;-57
2024/01/09 00:35:19;;;;;;;;;;;;;;;;;;5084051;28;20325;-57
2024/01/09 00:37:45;;;;;;;;;;;;;;;;;;5093519;28;20008;-57
2024/01/09 00:40:11;;;;;;;;;;;;;;;;;;5090783;28;19950;-57
2024/01/09 00:42:37;;;;;;;;;;;;;;;;;;5093531;28;19947;-56
2024/01/09 00:45:03;;;;;;;;;;;;;;;;;;5092713;28;20333;-56
2024/01/09 00:47:29;;;;;;;;;;;;;;;;;;5092984;28;19916;-56
2024/01/09 00:49:55;;;;;;;;;;;;;;;;;;5089256;28;19918;-57
2024/01/09 00:52:21;;;;;;;;;;;;;;;;;;5081949;28;19912;-57
2024/01/09 00:54:47;;;;;;;;;;;;;;;;;;5082249;28;20430;-57
2024/01/09 00:57:13;;;;;;;;;;;;;;;;;;5089718;28;19916;-57
2024/01/09 00:59:39;;;;;;;;;;;;;;;;;;5087783;28;19912;-55
2024/01/09 01:02:05;;;;;;;;;;;;;;;;;;5090900;28;19985;-57
2024/01/09 01:04:31;;;;;;;;;;;;;;;;;;5089580;28;20357;-57
2024/01/09 01:06:57;;;;;;;;;;;;;;;;;;5090728;28;20403;-56
2024/01/09 01:09:23;;;;;;;;;;;;;;;;;;5084171;28;20376;-56
2024/01/09 01:11:49;;;;;;;;;;;;;;;;;;5092600;28;19959;-57
2024/01/09 01:14:15;;;;;;;;;;;;;;;;;;5090260;28;23004;-57
2024/01/09 01:16:41;;;;;;;;;;;;;;;;;;5091709;28;19916;-57
2024/01/09 01:19:06;;;;;;;;;;;;;;;;;;5083282;28;19958;-56
2024/01/09 01:21:32;;;;;;;;;;;;;;;;;;5076725;28;20356;-56
2024/01/09 01:23:58;;;;;;;;;;;;;;;;;;5089542;28;19959;-57
2024/01/09 01:26:24;;;;;;;;;;;;;;;;;;5089426;28;19920;-57
2024/01/09 01:28:50;;;;;;;;;;;;;;;;;;5091053;28;20379;-57
2024/01/09 01:31:16;;;;;;;;;;;;;;;;;;5084092;28;19955;-57
2024/01/09 01:33:42;;;;;;;;;;;;;;;;;;5083476;28;19955;-57
2024/01/09 01:36:08;;;;;;;;;;;;;;;;;;5092382;28;19927;-57
2024/01/09 01:38:34;;;;;;;;;;;;;;;;;;5088556;28;19935;-56
2024/01/09 01:41:00;;;;;;;;;;;;;;;;;;5081074;28;19981;-57
2024/01/09 01:43:25;;;;;;;;;;;;;;;;;;5081475;28;19920;-57
2024/01/09 01:45:51;;;;;;;;;;;;;;;;;;5085340;28;19915;-57
2024/01/09 01:48:17;;;;;;;;;;;;;;;;;;5091269;28;19923;-57
2024/01/09 01:50:43;;;;;;;;;;;;;;;;;;5091921;28;19912;-57
2024/01/09 01:53:09;;;;;;;;;;;;;;;;;;5090475;28;19919;-56
2024/01/09 01:55:35;;;;;;;;;;;;;;;;;;5092377;28;19944;-57
2024/01/09 01:58:01;;;;;;;;;;;;;;;;;;5086465;28;19962;-57
2024/01/09 02:00:27;;;;;;;;;;;;;;;;;;5089110;28;20014;-57
2024/01/09 02:02:53;;;;;;;;;;;;;;;;;;5084857;28;19964;-58
2024/01/09 02:05:19;;;;;;;;;;;;;;;;;;5092375;28;19916;-58
2024/01/09 02:07:45;;;;;;;;;;;;;;;;;;5092112;28;19959;-57
2024/01/09 02:10:11;;;;;;;;;;;;;;;;;;5077378;28;20360;-58
2024/01/09 02:12:36;;;;;;;;;;;;;;;;;;5072414;28;19993;-57
2024/01/09 02:15:02;;;;;;;;;;;;;;;;;;5091017;28;20364;-57
2024/01/09 02:17:28;;;;;;;;;;;;;;;;;;5085676;28;20042;-58
2024/01/09 02:19:54;;;;;;;;;;;;;;;;;;5091395;28;20276;-56
2024/01/09 02:22:20;;;;;;;;;;;;;;;;;;5090483;28;19923;-57
2024/01/09 02:24:46;;;;;;;;;;;;;;;;;;5086506;28;19999;-60
2024/01/09 02:27:12;;;;;;;;;;;;;;;;;;5079599;28;19912;-57
2024/01/09 02:29:38;;;;;;;;;;;;;;;;;;5087591;28;20354;-57
2024/01/09 02:32:04;;;;;;;;;;;;;;;;;;5072522;28;19991;-57
2024/01/09 02:34:30;;;;;;;;;;;;;;;;;;5092012;28;19934;-57
2024/01/09 02:36:56;;;;;;;;;;;;;;;;;;5092396;28;20431;-57
2024/01/09 02:39:22;;;;;;;;;;;;;;;;;;5079516;28;19919;-57
2024/01/09 02:41:48;;;;;;;;;;;;;;;;;;5089730;28;22062;-57
2024/01/09 02:44:14;;;;;;;;;;;;;;;;;;5077014;28;19959;-57
2024/01/09 02:46:40;;;;;;;;;;;;;;;;;;5088062;28;19974;-57
2024/01/09 02:49:06;;;;;;;;;;;;;;;;;;5090145;28;20336;-57
2024/01/09 02:51:32;;;;;;;;;;;;;;;;;;5088742;28;19954;-57
2024/01/09 02:53:58;;;;;;;;;;;;;;;;;;5090921;28;19920;-57
2024/01/09 02:56:24;;;;;;;;;;;;;;;;;;5090849;28;19918;-57
2024/01/09 02:58:49;;;;;;;;;;;;;;;;;;5080487;28;19951;-57
2024/01/09 03:01:15;;;;;;;;;;;;;;;;;;5090933;28;19977;-57
2024/01/09 03:03:41;;;;;;;;;;;;;;;;;;5088467;28;20010;-57
2024/01/09 03:06:07;;;;;;;;;;;;;;;;;;5089983;28;20378;-56
2024/01/09 03:08:33;;;;;;;;;;;;;;;;;;5084184;28;20002;-57
2024/01/09 03:10:59;;;;;;;;;;;;;;;;;;5078936;28;19917;-57
2024/01/09 03:13:25;;;;;;;;;;;;;;;;;;5087908;28;19912;-57
2024/01/09 03:15:51;;;;;;;;;;;;;;;;;;5089375;28;19974;-57
2024/01/09 03:18:17;;;;;;;;;;;;;;;;;;5085842;28;20311;-57
2024/01/09 03:20:42;;;;;;;;;;;;;;;;;;5090831;28;20010;-57
2024/01/09 03:23:08;;;;;;;;;;;;;;;;;;5086953;28;20011;-58
2024/01/09 03:25:34;;;;;;;;;;;;;;;;;;5093605;28;19916;-57
2024/01/09 03:28:00;;;;;;;;;;;;;;;;;;5092805;28;19935;-57
2024/01/09 03:30:29;;;;;;;;;;;;;;;;;;5091131;28;20436;-57
2024/01/09 03:32:55;;;;;;;;;;;;;;;;;;5093744;28;20298;-57
2024/01/09 03:35:21;;;;;;;;;;;;;;;;;;5086915;28;19955;-57
2024/01/09 03:37:47;;;;;;;;;;;;;;;;;;5091705;28;19923;-56
2024/01/09 03:40:13;;;;;;;;;;;;;;;;;;5079028;28;19912;-57
2024/01/09 03:42:38;;;;;;;;;;;;;;;;;;5092103;28;19916;-57
2024/01/09 03:45:04;;;;;;;;;;;;;;;;;;5094505;28;19970;-57
2024/01/09 03:47:30;;;;;;;;;;;;;;;;;;5088257;28;20273;-57
2024/01/09 03:49:56;;;;;;;;;;;;;;;;;;5090035;28;20287;-56
2024/01/09 03:52:23;;;;;;;;;;;;;;;;;;5092320;28;19919;-57
2024/01/09 03:54:49;;;;;;;;;;;;;;;;;;5089559;28;20003;-57
2024/01/09 03:57:14;;;;;;;;;;;;;;;;;;5093839;28;19943;-57
2024/01/09 03:59:42;;;;;;;;;;;;;;;;;;5094504;28;19924;-57
2024/01/09 04:02:07;;;;;;;;;;;;;;;;;;5089285;28;19912;-57
2024/01/09 04:04:33;;;;;;;;;;;;;;;;;;5088698;28;19963;-56
2024/01/09 04:06:59;;;;;;;;;;;;;;;;;;5093801;28;20376;-57
2024/01/09 04:09:25;;;;;;;;;;;;;;;;;;5093626;28;19919;-57
2024/01/09 04:11:51;;;;;;;;;;;;;;;;;;5092371;28;20000;-57
2024/01/09 04:14:17;;;;;;;;;;;;;;;;;;5089990;28;19961;-57
2024/01/09 04:16:43;;;;;;;;;;;;;;;;;;5093824;28;20279;-58
2024/01/09 04:19:09;;;;;;;;;;;;;;;;;;5094373;28;19919;-57
2024/01/09 04:21:35;;;;;;;;;;;;;;;;;;5087877;28;19946;-57
2024/01/09 04:24:01;;;;;;;;;;;;;;;;;;5093864;28;19913;-57
2024/01/09 04:26:27;;;;;;;;;;;;;;;;;;5091943;28;20368;-57
2024/01/09 04:28:53;;;;;;;;;;;;;;;;;;5093011;28;19974;-57
2024/01/09 04:31:19;;;;;;;;;;;;;;;;;;5094034;28;20295;-57
2024/01/09 04:33:44;;;;;;;;;;;;;;;;;;5094317;28;19908;-56
2024/01/09 04:36:10;;;;;;;;;;;;;;;;;;5094000;28;19965;-55
2024/01/09 04:38:36;;;;;;;;;;;;;;;;;;5087942;28;19956;-57
2024/01/09 04:41:02;;;;;;;;;;;;;;;;;;5091034;28;20364;-57
2024/01/09 04:43:28;;;;;;;;;;;;;;;;;;5077840;28;20037;-57
2024/01/09 04:45:54;;;;;;;;;;;;;;;;;;5082869;28;20372;-57
2024/01/09 04:48:20;;;;;;;;;;;;;;;;;;5092928;28;19916;-57
2024/01/09 04:50:46;;;;;;;;;;;;;;;;;;5093632;28;19912;-56
2024/01/09 04:53:12;;;;;;;;;;;;;;;;;;5081809;28;19952;-57
2024/01/09 04:55:38;;;;;;;;;;;;;;;;;;5091519;28;19986;-57
2024/01/09 04:58:03;;;;;;;;;;;;;;;;;;5085295;28;19917;-57
2024/01/09 05:00:29;;;;;;;;;;;;;;;;;;5078322;28;20273;-57
2024/01/09 05:02:55;;;;;;;;;;;;;;;;;;5076931;28;19920;-57
2024/01/09 05:05:21;;;;;;;;;;;;;;;;;;5091368;28;20019;-57
2024/01/09 05:07:47;;;;;;;;;;;;;;;;;;5092854;28;19943;-56
2024/01/09 05:10:13;;;;;;;;;;;;;;;;;;5089008;28;20006;-56
2024/01/09 05:12:39;;;;;;;;;;;;;;;;;;5090791;28;19916;-56
2024/01/09 05:15:05;;;;;;;;;;;;;;;;;;5082861;28;19956;-57
2024/01/09 05:17:31;;;;;;;;;;;;;;;;;;5082781;28;19956;-57
2024/01/09 05:19:56;;;;;;;;;;;;;;;;;;5085911;28;19965;-57
2024/01/09 05:22:22;;;;;;;;;;;;;;;;;;5090307;28;19956;-59
2024/01/09 05:24:48;;;;;;;;;;;;;;;;;;5090567;28;19920;-57
2024/01/09 05:27:14;;;;;;;;;;;;;;;;;;5089377;28;19918;-56
2024/01/09 05:29:40;;;;;;;;;;;;;;;;;;5089016;28;19924;-56
2024/01/09 05:32:06;;;;;;;;;;;;;;;;;;5084128;28;19955;-57
2024/01/09 05:34:32;;;;;;;;;;;;;;;;;;5078956;28;19915;-57
2024/01/09 05:36:58;;;;;;;;;;;;;;;;;;5089964;28;20359;-59
2024/01/09 05:39:24;;;;;;;;;;;;;;;;;;5090133;28;20368;-57
2024/01/09 05:41:50;;;;;;;;;;;;;;;;;;5088563;28;19916;-57
2024/01/09 05:44:16;;;;;;;;;;;;;;;;;;5090742;28;20291;-57
2024/01/09 05:46:42;;;;;;;;;;;;;;;;;;5092457;28;19954;-56
2024/01/09 05:49:08;;;;;;;;;;;;;;;;;;5091666;28;20261;-56
2024/01/09 05:51:34;;;;;;;;;;;;;;;;;;5085625;28;19912;-57
2024/01/09 05:54:00;;;;;;;;;;;;;;;;;;5085566;28;19935;-57
2024/01/09 05:56:26;;;;;;;;;;;;;;;;;;5087239;28;19956;-57
2024/01/09 05:58:52;;;;;;;;;;;;;;;;;;5084111;28;19923;-57
2024/01/09 06:01:18;;;;;;;;;;;;;;;;;;5089386;28;20443;-56
2024/01/09 06:03:43;;;;;;;;;;;;;;;;;;5087506;28;19965;-60
2024/01/09 06:06:09;;;;;;;;;;;;;;;;;;5081950;28;20330;-57
2024/01/09 06:08:35;;;;;;;;;;;;;;;;;;5084804;28;19954;-57
2024/01/09 06:11:01;;;;;;;;;;;;;;;;;;5087363;28;19937;-57
2024/01/09 06:13:27;;;;;;;;;;;;;;;;;;5089706;28;19964;-57
2024/01/09 06:15:53;;;;;;;;;;;;;;;;;;5085720;28;19923;-57
2024/01/09 06:18:19;;;;;;;;;;;;;;;;;;5080388;28;19943;-57
2024/01/09 06:20:45;;;;;;;;;;;;;;;;;;5088793;28;20398;-58
2024/01/09 06:23:11;;;;;;;;;;;;;;;;;;5087953;28;20011;-57
2024/01/09 06:25:37;;;;;;;;;;;;;;;;;;5090887;28;19912;-57
2024/01/09 06:28:02;;;;;;;;;;;;;;;;;;5091633;28;19920;-57
2024/01/09 06:30:28;;;;;;;;;;;;;;;;;;5091819;28;19959;-58
2024/01/09 06:32:54;;;;;;;;;;;;;;;;;;5092032;28;19908;-57
2024/01/09 06:35:20;;;;;;;;;;;;;;;;;;5090360;28;20381;-58
2024/01/09 06:37:46;;;;;;;;;;;;;;;;;;5091968;28;20045;-58
2024/01/09 06:40:12;;;;;;;;;;;;;;;;;;5088333;28;19912;-57
2024/01/09 06:42:39;;;;;;;;;;;;;;;;;;5083679;28;19919;-57
2024/01/09 06:45:05;;;;;;;;;;;;;;;;;;5090411;28;19969;-56
2024/01/09 06:47:31;;;;;;;;;;;;;;;;;;5085898;28;19912;-58
2024/01/09 06:49:57;;;;;;;;;;;;;;;;;;5081719;28;19954;-57
2024/01/09 06:52:23;;;;;;;;;;;;;;;;;;5095849;28;20447;-57
2024/01/09 06:54:48;;;;;;;;;;;;;;;;;;5095993;28;20054;-57
2024/01/09 06:57:14;;;;;;;;;;;;;;;;;;5096186;28;19908;-57
2024/01/09 06:59:40;;;;;;;;;;;;;;;;;;5090876;28;19927;-57
2024/01/09 07:02:06;;;;;;;;;;;;;;;;;;5077907;28;19967;-58
2024/01/09 07:04:32;;;;;;;;;;;;;;;;;;5093498;28;19912;-57
2024/01/09 07:06:58;;;;;;;;;;;;;;;;;;5094453;28;20038;-57
2024/01/09 07:09:24;;;;;;;;;;;;;;;;;;5083590;28;19916;-57
2024/01/09 07:11:50;;;;;;;;;;;;;;;;;;5087219;28;20012;-57
2024/01/09 07:14:16;;;;;;;;;;;;;;;;;;5086235;28;20368;-57
2024/01/09 07:16:41;;;;;;;;;;;;;;;;;;5087877;28;19920;-57
2024/01/09 07:19:07;;;;;;;;;;;;;;;;;;5084217;28;20453;-56
2024/01/09 07:21:33;;;;;;;;;;;;;;;;;;5092332;28;20051;-58
2024/01/09 07:23:59;;;;;;;;;;;;;;;;;;5094815;28;19943;-57
2024/01/09 07:26:25;;;;;;;;;;;;;;;;;;5094694;28;20349;-56
2024/01/09 07:28:51;;;;;;;;;;;;;;;;;;5094747;28;19920;-57
2024/01/09 07:31:17;;;;;;;;;;;;;;;;;;5091275;28;19912;-55
2024/01/09 07:33:43;;;;;;;;;;;;;;;;;;5094913;28;19912;-57
2024/01/09 07:36:09;;;;;;;;;;;;;;;;;;5094200;28;20038;-57
2024/01/09 07:38:35;;;;;;;;;;;;;;;;;;5094717;28;19916;-57
2024/01/09 07:41:01;;;;;;;;;;;;;;;;;;5094093;28;19914;-57
2024/01/09 07:43:26;;;;;;;;;;;;;;;;;;5094656;28;20018;-58
2024/01/09 07:45:52;;;;;;;;;;;;;;;;;;5094351;28;20011;-57
2024/01/09 07:48:18;;;;;;;;;;;;;;;;;;5093093;28;20380;-57
2024/01/09 07:50:44;;;;;;;;;;;;;;;;;;5092726;28;19957;-57
2024/01/09 07:53:13;;;;;;;;;;;;;;;;;;5090545;28;19916;-56
2024/01/09 07:55:39;;;;;;;;;;;;;;;;;;5094444;28;19909;-58
2024/01/09 07:58:06;;;;;;;;;;;;;;;;;;5093993;28;19991;-57
2024/01/09 08:00:34;;;;;;;;;;;;;;;;;;5093965;28;19908;-57
2024/01/09 08:03:00;;;;;;;;;;;;;;;;;;5093867;28;19916;-58
2024/01/09 08:05:26;;;;;;;;;;;;;;;;;;5093957;28;20000;-58
2024/01/09 08:07:52;;;;;;;;;;;;;;;;;;5085243;28;19919;-57
2024/01/09 08:10:18;;;;;;;;;;;;;;;;;;5092707;28;19916;-58
2024/01/09 08:12:44;;;;;;;;;;;;;;;;;;5094031;28;19959;-58
2024/01/09 08:15:11;;;;;;;;;;;;;;;;;;5093915;28;20340;-57
2024/01/09 08:17:36;;;;;;;;;;;;;;;;;;5093900;28;19930;-57
2024/01/09 08:20:03;;;;;;;;;;;;;;;;;;5085719;28;19952;-58
2024/01/09 08:22:29;;;;;;;;;;;;;;;;;;5086649;28;19985;-58
2024/01/09 08:24:55;;;;;;;;;;;;;;;;;;5093653;28;19947;-56
2024/01/09 08:27:21;;;;;;;;;;;;;;;;;;5093703;28;19990;-58
2024/01/09 08:29:47;;;;;;;;;;;;;;;;;;5093139;28;20305;-57
2024/01/09 08:32:16;;;;;;;;;;;;;;;;;;5093339;28;19912;-57
2024/01/09 08:34:42;;;;;;;;;;;;;;;;;;5092116;28;19915;-57
2024/01/09 08:37:08;;;;;;;;;;;;;;;;;;5090283;28;19967;-58
2024/01/09 08:39:34;;;;;;;;;;;;;;;;;;5089882;28;19915;-58
2024/01/09 08:42:00;;;;;;;;;;;;;;;;;;5093417;28;19908;-58
2024/01/09 08:44:27;;;;;;;;;;;;;;;;;;5093310;28;19916;-58
2024/01/09 08:46:52;;;;;;;;;;;;;;;;;;5093181;28;19999;-58
2024/01/09 08:49:19;;;;;;;;;;;;;;;;;;5092701;28;20011;-58
2024/01/09 08:51:45;;;;;;;;;;;;;;;;;;5093385;28;19966;-58
2024/01/09 08:54:11;;;;;;;;;;;;;;;;;;5093298;28;19993;-58
2024/01/09 08:56:37;;;;;;;;;;;;;;;;;;5093327;28;19915;-58
2024/01/09 08:59:03;;;;;;;;;;;;;;;;;;5090710;28;19949;-58
2024/01/09 09:01:30;;;;;;;;;;;;;;;;;;5092194;28;19960;-58
2024/01/09 09:03:56;;;;;;;;;;;;;;;;;;5091500;28;19967;-58
2024/01/09 09:06:22;;;;;;;;;;;;;;;;;;5092851;28;20368;-58
2024/01/09 09:08:48;;;;;;;;;;;;;;;;;;5092646;28;19957;-58
2024/01/09 09:11:16;;;;;;;;;;;;;;;;;;5089236;28;20278;-58
2024/01/09 09:13:42;;;;;;;;;;;;;;;;;;5082334;28;20279;-57
2024/01/09 09:16:08;;;;;;;;;;;;;;;;;;5092277;28;19908;-57
2024/01/09 09:18:34;;;;;;;;;;;;;;;;;;5092979;28;20006;-59
2024/01/09 09:21:00;;;;;;;;;;;;;;;;;;5083755;28;19916;-58
2024/01/09 09:23:26;;;;;;;;;;;;;;;;;;5092539;28;20036;-57
2024/01/09 09:25:52;;;;;;;;;;;;;;;;;;5090927;28;20272;-59
2024/01/09 09:28:18;;;;;;;;;;;;;;;;;;5092525;28;19927;-58
2024/01/09 09:30:44;;;;;;;;;;;;;;;;;;5092033;28;20332;-58
2024/01/09 09:33:09;;;;;;;;;;;;;;;;;;5092476;28;19908;-58
2024/01/09 09:35:36;;;;;;;;;;;;;;;;;;5090932;28;19962;-58
2024/01/09 09:38:02;;;;;;;;;;;;;;;;;;5076764;28;20333;-58
2024/01/09 09:40:28;;;;;;;;;;;;;;;;;;5092079;28;19988;-58
2024/01/09 09:42:55;;;;;;;;;;;;;;;;;;5092196;28;19912;-56
2024/01/09 09:45:21;;;;;;;;;;;;;;;;;;5092164;28;19912;-58
2024/01/09 09:47:47;;;;;;;;;;;;;;;;;;5092144;28;19980;-58
2024/01/09 09:50:13;;;;;;;;;;;;;;;;;;5091575;28;19954;-56
2024/01/09 09:52:39;;;;;;;;;;;;;;;;;;5092189;28;19958;-58
2024/01/09 09:55:05;;;;;;;;;;;;;;;;;;5092146;28;19951;-57
2024/01/09 09:57:31;;;;;;;;;;;;;;;;;;5090355;28;19995;-58
2024/01/09 09:59:57;;;;;;;;;;;;;;;;;;5091442;28;19923;-58
2024/01/09 10:02:24;;;;;;;;;;;;;;;;;;5089499;28;19948;-58
2024/01/09 10:04:52;;;;;;;;;;;;;;;;;;5088139;28;20321;-58
2024/01/09 10:07:18;;;;;;;;;;;;;;;;;;5092022;28;19999;-59
2024/01/09 10:09:46;;;;;;;;;;;;;;;;;;5091437;28;19954;-58
2024/01/09 10:12:12;;;;;;;;;;;;;;;;;;5084137;28;20439;-58
2024/01/09 10:14:38;;;;;;;;;;;;;;;;;;5092001;28;20011;-58
2024/01/09 10:17:05;;;;;;;;;;;;;;;;;;5091805;28;19908;-58
2024/01/09 10:19:31;;;;;;;;;;;;;;;;;;5089929;28;19919;-58
2024/01/09 10:21:57;;;;;;;;;;;;;;;;;;5087432;28;19928;-58
2024/01/09 10:24:23;;;;;;;;;;;;;;;;;;5091706;28;20061;-58
2024/01/09 10:26:49;;;;;;;;;;;;;;;;;;5091486;28;19951;-58
2024/01/09 10:29:14;;;;;;;;;;;;;;;;;;5091226;28;20167;-57
2024/01/09 10:31:40;;;;;;;;;;;;;;;;;;5091719;28;19912;-57
2024/01/09 10:34:06;;;;;;;;;;;;;;;;;;5091449;28;19912;-57
2024/01/09 10:36:32;;;;;;;;;;;;;;;;;;5091549;28;19915;-58
2024/01/09 10:38:58;;;;;;;;;;;;;;;;;;5089817;28;19916;-58
2024/01/09 10:41:24;;;;;;;;;;;;;;;;;;5091198;28;20322;-58
2024/01/09 10:43:50;;;;;;;;;;;;;;;;;;5091351;28;20004;-58
2024/01/09 10:46:16;;;;;;;;;;;;;;;;;;5091517;28;19912;-56
2024/01/09 10:48:42;;;;;;;;;;;;;;;;;;5091552;28;19916;-58
2024/01/09 10:51:08;;;;;;;;;;;;;;;;;;5091124;28;20354;-56
2024/01/09 10:53:34;;;;;;;;;;;;;;;;;;5089887;28;19908;-58
2024/01/09 10:56:00;;;;;;;;;;;;;;;;;;5091205;28;19908;-58
2024/01/09 10:58:26;;;;;;;;;;;;;;;;;;5091549;28;19908;-58
2024/01/09 11:00:52;;;;;;;;;;;;;;;;;;5090964;28;20324;-58
2024/01/09 11:03:19;;;;;;;;;;;;;;;;;;5081336;28;20000;-58
2024/01/09 11:05:45;;;;;;;;;;;;;;;;;;5091255;28;19912;-57
2024/01/09 11:08:11;;;;;;;;;;;;;;;;;;5091323;28;19957;-57
2024/01/09 11:10:37;;;;;;;;;;;;;;;;;;5089390;28;19977;-58
2024/01/09 11:13:03;;;;;;;;;;;;;;;;;;5088248;28;19908;-58
2024/01/09 11:15:29;;;;;;;;;;;;;;;;;;5091172;28;19914;-58
2024/01/09 11:17:55;;;;;;;;;;;;;;;;;;5091077;28;19909;-58
2024/01/09 11:20:21;;;;;;;;;;;;;;;;;;5090880;28;19908;-57
2024/01/09 11:22:47;;;;;;;;;;;;;;;;;;5088813;28;20329;-57
2024/01/09 11:25:15;;;;;;;;;;;;;;;;;;5078947;28;19950;-58
2024/01/09 11:27:41;;;;;;;;;;;;;;;;;;5091075;28;19913;-57
2024/01/09 11:30:07;;;;;;;;;;;;;;;;;;5090871;28;19916;-58
2024/01/09 11:32:33;;;;;;;;;;;;;;;;;;5089112;28;20003;-57
2024/01/09 11:34:59;;;;;;;;;;;;;;;;;;5094710;28;19912;-58
2024/01/09 11:37:25;;;;;;;;;;;;;;;;;;5094734;28;19908;-57
2024/01/09 11:39:51;;;;;;;;;;;;;;;;;;5094102;28;19916;-58
2024/01/09 11:42:17;;;;;;;;;;;;;;;;;;5093170;28;20407;-57
2024/01/09 11:44:43;;;;;;;;;;;;;;;;;;5090544;28;19919;-57
2024/01/09 11:47:09;;;;;;;;;;;;;;;;;;5087879;28;19916;-57
2024/01/09 11:49:35;;;;;;;;;;;;;;;;;;5093940;28;19908;-57
2024/01/09 11:52:01;;;;;;;;;;;;;;;;;;5094357;28;19975;-58
2024/01/09 11:54:27;;;;;;;;;;;;;;;;;;5094213;28;19908;-58
2024/01/09 11:56:53;;;;;;;;;;;;;;;;;;5094299;28;19908;-57
2024/01/09 11:59:19;;;;;;;;;;;;;;;;;;5093791;28;19952;-57
2024/01/09 12:01:44;;;;;;;;;;;;;;;;;;5091260;28;19918;-55
2024/01/09 12:04:11;;;;;;;;;;;;;;;;;;5093376;28;19908;-56
2024/01/09 12:06:37;;;;;;;;;;;;;;;;;;5082522;28;19959;-56
2024/01/09 12:09:02;;;;;;;;;;;;;;;;;;5091418;28;19952;-58
2024/01/09 12:11:29;;;;;;;;;;;;;;;;;;5088996;28;19979;-58
2024/01/09 12:13:54;;;;;;;;;;;;;;;;;;5082383;28;19909;-57
2024/01/09 12:16:22;;;;;;;;;;;;;;;;;;5091832;28;20005;-57
2024/01/09 12:18:48;;;;;;;;;;;;;;;;;;5093913;28;20355;-57
2024/01/09 12:21:14;;;;;;;;;;;;;;;;;;5093289;28;19912;-58
2024/01/09 12:23:40;;;;;;;;;;;;;;;;;;5091486;28;20572;-56
2024/01/09 12:26:06;;;;;;;;;;;;;;;;;;5093700;28;19916;-58
2024/01/09 12:28:33;;;;;;;;;;;;;;;;;;5093614;28;19944;-57
2024/01/09 12:31:01;;;;;;;;;;;;;;;;;;5079857;28;19967;-57
2024/01/09 12:33:27;;;;;;;;;;;;;;;;;;5092763;28;19955;-57
2024/01/09 12:35:53;;;;;;;;;;;;;;;;;;5093245;28;19947;-52
2024/01/09 12:38:22;;;;;;;;;;;;;;;;;;5093533;28;20418;-55
2024/01/09 12:40:48;;;;;;;;;;;;;;;;;;5091638;28;19914;-55
2024/01/09 12:43:14;;;;;;;;;;;;;;;;;;5084277;28;20611;-52
2024/01/09 12:45:41;;;;;;;;;;;;;;;;;;5087677;28;20006;-55
2024/01/09 12:48:08;;;;;;;;;;;;;;;;;;5084325;28;19909;-58
2024/01/09 12:50:34;;;;;;;;;;;;;;;;;;5088651;28;20348;-51
2024/01/09 12:53:00;;;;;;;;;;;;;;;;;;5093141;28;19965;-54
2024/01/09 12:55:26;;;;;;;;;;;;;;;;;;5093072;28;19908;-54
2024/01/09 12:57:52;;;;;;;;;;;;;;;;;;5082114;28;20007;-51
2024/01/09 13:00:18;;;;;;;;;;;;;;;;;;5090275;28;20434;-54
2024/01/09 13:02:45;;;;;;;;;;;;;;;;;;5092222;28;19959;-51
2024/01/09 13:05:11;;;;;;;;;;;;;;;;;;5092370;28;19923;-53
2024/01/09 13:07:36;;;;;;;;;;;;;;;;;;5092982;28;19908;-54
2024/01/09 13:10:02;;;;;;;;;;;;;;;;;;5092396;28;19916;-50
2024/01/09 13:12:28;;;;;;;;;;;;;;;;;;5092816;28;19955;-53
2024/01/09 13:14:54;;;;;;;;;;;;;;;;;;5090289;28;19948;-51
2024/01/09 13:17:22;;;;;;;;;;;;;;;;;;5088375;28;19916;-54
2024/01/09 13:19:50;;;;;;;;;;;;;;;;;;5090543;28;20019;-52
2024/01/09 13:22:15;;;;;;;;;;;;;;;;;;5082013;28;20320;-53
2024/01/09 13:24:41;;;;;;;;;;;;;;;;;;5089468;28;19926;-55
2024/01/09 13:27:07;;;;;;;;;;;;;;;;;;5088441;28;19979;-54
2024/01/09 13:29:33;;;;;;;;;;;;;;;;;;5087982;28;19928;-53
2024/01/09 13:31:59;;;;;;;;;;;;;;;;;;5091170;28;19912;-52
2024/01/09 13:34:25;;;;;;;;;;;;;;;;;;5091554;28;20299;-54
2024/01/09 13:36:55;;;;;;;;;;;;;;;;;;5090127;28;19943;-53
2024/01/09 13:39:23;;;;;;;;;;;;;;;;;;5087227;28;20018;-53
2024/01/09 13:41:48;;;;;;;;;;;;;;;;;;5077108;28;19924;-54
2024/01/09 13:44:16;;;;;;;;;;;;;;;;;;5085969;28;19993;-56
2024/01/09 13:46:42;;;;;;;;;;;;;;;;;;5085884;28;20273;-56
2024/01/09 13:49:08;;;;;;;;;;;;;;;;;;5091778;28;20064;-56
2024/01/09 13:51:34;;;;;;;;;;;;;;;;;;5089444;28;19920;-56
2024/01/09 13:54:00;;;;;;;;;;;;;;;;;;5087971;28;19943;-57
2024/01/09 13:56:30;;;;;;;;;;;;;;;;;;5091397;28;19955;-57
2024/01/09 13:58:56;;;;;;;;;;;;;;;;;;5088950;28;19920;-57
2024/01/09 14:01:21;;;;;;;;;;;;;;;;;;5081073;28;19999;-57
2024/01/09 14:03:47;;;;;;;;;;;;;;;;;;5079517;28;20407;-57
2024/01/09 14:06:15;;;;;;;;;;;;;;;;;;5091125;28;20024;-56
2024/01/09 14:08:41;;;;;;;;;;;;;;;;;;5091269;28;20004;-56
2024/01/09 14:11:07;;;;;;;;;;;;;;;;;;5089539;28;19969;-56
2024/01/09 14:13:33;;;;;;;;;;;;;;;;;;5089960;28;19915;-57
2024/01/09 14:15:59;;;;;;;;;;;;;;;;;;5090762;28;19916;-57
2024/01/09 14:18:25;;;;;;;;;;;;;;;;;;5090321;28;19947;-56
2024/01/09 14:20:51;;;;;;;;;;;;;;;;;;5091113;28;19912;-57
2024/01/09 14:23:17;;;;;;;;;;;;;;;;;;5091624;28;19957;-56
2024/01/09 14:25:43;;;;;;;;;;;;;;;;;;5079092;28;19916;-57
2024/01/09 14:28:09;;;;;;;;;;;;;;;;;;5084196;28;19960;-57
2024/01/09 14:30:35;;;;;;;;;;;;;;;;;;5082693;28;20384;-56
2024/01/09 14:33:01;;;;;;;;;;;;;;;;;;5084670;28;19951;-57
2024/01/09 14:35:27;;;;;;;;;;;;;;;;;;5088160;28;20340;-57
2024/01/09 14:37:53;;;;;;;;;;;;;;;;;;5087014;28;20391;-57
2024/01/09 14:40:19;;;;;;;;;;;;;;;;;;5090762;28;19948;-57
2024/01/09 14:42:44;;;;;;;;;;;;;;;;;;5091561;28;19908;-58
2024/01/09 14:45:12;;;;;;;;;;;;;;;;;;5078485;28;19955;-57
2024/01/09 14:47:38;;;;;;;;;;;;;;;;;;5091594;28;20360;-57
2024/01/09 14:50:04;;;;;;;;;;;;;;;;;;5090638;28;19912;-58
2024/01/09 14:52:30;;;;;;;;;;;;;;;;;;5087761;28;19921;-56
2024/01/09 14:54:56;;;;;;;;;;;;;;;;;;5091112;28;19912;-51
2024/01/09 14:57:21;;;;;;;;;;;;;;;;;;5090806;28;19991;-52
2024/01/09 14:59:47;;;;;;;;;;;;;;;;;;5085795;28;19921;-52
2024/01/09 15:02:13;;;;;;;;;;;;;;;;;;5080672;28;19967;-53
2024/01/09 15:04:39;;;;;;;;;;;;;;;;;;5074381;28;20365;-55
2024/01/09 15:07:05;;;;;;;;;;;;;;;;;;5090652;28;19908;-54
2024/01/09 15:09:31;;;;;;;;;;;;;;;;;;5092868;28;20019;-53
2024/01/09 15:11:57;;;;;;;;;;;;;;;;;;5090122;28;19950;-53
2024/01/09 15:14:23;;;;;;;;;;;;;;;;;;5082324;28;19951;-52
2024/01/09 15:16:49;;;;;;;;;;;;;;;;;;5088238;28;20030;-53
2024/01/09 15:19:15;;;;;;;;;;;;;;;;;;5087457;28;19951;-53
2024/01/09 15:21:41;;;;;;;;;;;;;;;;;;5091199;28;19947;-53
2024/01/09 15:24:07;;;;;;;;;;;;;;;;;;5094064;28;19922;-54
2024/01/09 15:26:33;;;;;;;;;;;;;;;;;;5089090;28;19920;-54
2024/01/09 15:28:59;;;;;;;;;;;;;;;;;;5078011;28;20008;-52
2024/01/09 15:31:25;;;;;;;;;;;;;;;;;;5087846;28;19952;-53
2024/01/09 15:33:51;;;;;;;;;;;;;;;;;;5090528;28;19920;-54
2024/01/09 15:36:17;;;;;;;;;;;;;;;;;;5086208;28;19912;-55
2024/01/09 15:38:46;;;;;;;;;;;;;;;;;;5090563;28;21562;-54
2024/01/09 15:41:12;;;;;;;;;;;;;;;;;;5094293;28;19950;-53
2024/01/09 15:43:38;;;;;;;;;;;;;;;;;;5093116;28;20007;-53
2024/01/09 15:46:04;;;;;;;;;;;;;;;;;;5094818;28;19927;-53
2024/01/09 15:48:30;;;;;;;;;;;;;;;;;;5089561;28;20337;-54
2024/01/09 15:50:56;;;;;;;;;;;;;;;;;;5092877;28;19915;-55
2024/01/09 15:53:22;;;;;;;;;;;;;;;;;;5092503;28;20015;-56
2024/01/09 15:55:49;;;;;;;;;;;;;;;;;;5086627;28;19970;-54
2024/01/09 15:58:15;;;;;;;;;;;;;;;;;;5081165;28;19974;-53
2024/01/09 16:00:42;;;;;;;;;;;;;;;;;;5094134;28;20218;-53
2024/01/09 16:03:08;;;;;;;;;;;;;;;;;;5084515;28;19923;-57
2024/01/09 16:05:34;;;;;;;;;;;;;;;;;;5081002;28;19920;-57
2024/01/09 16:08:00;;;;;;;;;;;;;;;;;;5094207;28;20004;-57
2024/01/09 16:10:29;;;;;;;;;;;;;;;;;;5088637;28;20032;-57
2024/01/09 16:12:55;;;;;;;;;;;;;;;;;;5090635;28;19916;-57
2024/01/09 16:15:21;;;;;;;;;;;;;;;;;;5087097;28;19919;-57
2024/01/09 16:17:47;;;;;;;;;;;;;;;;;;5083601;28;19947;-57
2024/01/09 16:20:13;;;;;;;;;;;;;;;;;;5083618;28;19999;-57
2024/01/09 16:22:39;;;;;;;;;;;;;;;;;;5081553;28;19968;-58
2024/01/09 16:25:09;;;;;;;;;;;;;;;;;;5083489;28;19925;-57
2024/01/09 16:27:35;;;;;;;;;;;;;;;;;;5086682;28;20360;-56
2024/01/09 16:30:02;;;;;;;;;;;;;;;;;;5085041;28;19924;-57
2024/01/09 16:32:29;;;;;;;;;;;;;;;;;;5089466;28;20007;-58
2024/01/09 16:34:54;;;;;;;;;;;;;;;;;;5078706;28;19916;-56
2024/01/09 16:37:20;;;;;;;;;;;;;;;;;;5091737;28;20368;-58